createdAt,value
2018-12-25T00:02:40.226Z,99.90
2018-12-25T00:07:25.970Z,99.90
2018-12-25T00:12:11.756Z,99.90
2018-12-25T00:16:57.487Z,99.90
2018-12-25T00:21:43.241Z,99.90
2018-12-25T00:26:29.017Z,99.90
2018-12-25T00:31:14.705Z,99.90
2018-12-25T00:36:00.619Z,99.90
2018-12-25T00:40:46.498Z,99.90
2018-12-25T00:45:32.316Z,99.90
2018-12-25T00:50:18.089Z,99.90
2018-12-25T00:55:03.858Z,99.90
2018-12-25T00:59:49.604Z,99.90
2018-12-25T01:04:35.468Z,99.90
2018-12-25T01:09:21.174Z,99.90
2018-12-25T01:14:06.953Z,99.90
2018-12-25T01:18:52.702Z,99.90
2018-12-25T01:23:38.619Z,99.90
2018-12-25T01:28:24.684Z,99.90
2018-12-25T01:33:10.515Z,99.90
2018-12-25T01:37:56.262Z,99.90
2018-12-25T01:42:42.004Z,99.90
2018-12-25T01:47:27.752Z,99.90
2018-12-25T01:52:13.536Z,99.90
2018-12-25T01:56:59.296Z,99.90
2018-12-25T02:01:44.986Z,99.90
2018-12-25T02:06:30.768Z,99.90
2018-12-25T02:11:16.877Z,99.90
2018-12-25T02:16:02.765Z,99.90
2018-12-25T02:20:48.548Z,99.90
2018-12-25T02:25:34.531Z,99.90
2018-12-25T02:30:20.373Z,99.90
2018-12-25T02:35:06.337Z,99.90
2018-12-25T02:39:52.173Z,99.90
2018-12-25T02:44:37.909Z,99.90
2018-12-25T02:49:23.767Z,99.90
2018-12-25T02:54:09.590Z,99.90
2018-12-25T02:58:55.784Z,99.90
2018-12-25T03:03:41.691Z,99.90
2018-12-25T03:08:27.514Z,99.90
2018-12-25T03:13:13.331Z,99.90
2018-12-25T03:17:59.211Z,99.90
2018-12-25T03:22:44.990Z,99.90
2018-12-25T03:27:30.782Z,99.90
2018-12-25T03:32:16.426Z,99.90
2018-12-25T03:37:02.221Z,99.90
2018-12-25T03:41:47.894Z,99.90
2018-12-25T03:46:33.762Z,99.90
2018-12-25T03:51:19.412Z,99.90
2018-12-25T03:56:05.125Z,99.90
2018-12-25T04:00:51.020Z,99.90
2018-12-25T04:05:36.754Z,99.90
2018-12-25T04:10:22.457Z,99.90
2018-12-25T04:15:08.290Z,99.90
2018-12-25T04:19:54.032Z,99.90
2018-12-25T04:24:41.698Z,99.90
2018-12-25T04:29:27.509Z,99.90
2018-12-25T04:34:13.392Z,99.90
2018-12-25T04:38:59.063Z,99.90
2018-12-25T04:43:44.956Z,99.90
2018-12-25T04:48:30.626Z,99.90
2018-12-25T04:53:16.366Z,99.90
2018-12-25T04:58:02.121Z,99.90
2018-12-25T05:02:47.882Z,99.90
2018-12-25T05:07:33.603Z,99.90
2018-12-25T05:12:19.345Z,99.90
2018-12-25T05:17:05.076Z,99.90
2018-12-25T05:21:50.766Z,99.90
2018-12-25T05:26:36.491Z,99.90
2018-12-25T05:31:22.161Z,99.90
2018-12-25T05:36:07.926Z,99.90
2018-12-25T05:40:53.603Z,99.90
2018-12-25T05:45:39.354Z,99.90
2018-12-25T05:50:25.097Z,99.90
2018-12-25T05:55:10.931Z,99.90
2018-12-25T05:59:56.617Z,99.90
2018-12-25T06:04:42.317Z,99.90
2018-12-25T06:09:28.663Z,99.90
2018-12-25T06:14:14.502Z,99.90
2018-12-25T06:19:00.258Z,99.90
2018-12-25T06:23:45.921Z,99.90
2018-12-25T06:28:31.738Z,99.90
2018-12-25T06:33:17.437Z,99.90
2018-12-25T06:38:03.174Z,99.90
2018-12-25T06:42:48.790Z,99.90
2018-12-25T06:47:34.654Z,99.90
2018-12-25T06:52:20.343Z,99.90
2018-12-25T06:57:06.250Z,99.90
2018-12-25T07:01:51.956Z,99.90
2018-12-25T07:06:37.854Z,99.90
2018-12-25T07:11:23.676Z,99.90
2018-12-25T07:16:09.421Z,99.90
2018-12-25T07:20:55.232Z,99.90
2018-12-25T07:25:41.014Z,99.90
2018-12-25T07:30:26.778Z,99.90
2018-12-25T07:35:12.540Z,99.90
2018-12-25T07:39:58.219Z,99.90
2018-12-25T07:44:43.988Z,99.90
2018-12-25T07:49:29.724Z,99.90
2018-12-25T07:54:15.560Z,99.90
2018-12-25T07:59:01.320Z,99.90
2018-12-25T08:03:47.049Z,99.90
2018-12-25T08:08:32.823Z,99.90
2018-12-25T08:13:18.658Z,99.90
2018-12-25T08:18:06.397Z,99.90
2018-12-25T08:22:52.172Z,99.90
2018-12-25T08:27:37.981Z,99.90
2018-12-25T08:32:23.848Z,99.90
2018-12-25T08:37:09.577Z,99.90
2018-12-25T08:41:55.375Z,99.90
2018-12-25T08:46:41.084Z,99.90
2018-12-25T08:51:28.036Z,99.90
2018-12-25T08:56:13.906Z,99.90
2018-12-25T09:00:59.642Z,99.90
2018-12-25T09:05:45.387Z,99.90
2018-12-25T09:10:31.113Z,99.90
2018-12-25T09:15:16.865Z,99.90
2018-12-25T09:20:02.663Z,99.90
2018-12-25T09:24:48.384Z,99.90
2018-12-25T09:29:34.115Z,99.90
2018-12-25T09:34:19.811Z,98.60
2018-12-25T09:39:08.745Z,99.90
2018-12-25T09:43:54.420Z,99.90
2018-12-25T09:48:40.111Z,99.50
2018-12-25T09:53:25.835Z,93.30
2018-12-25T09:58:11.611Z,89.20
2018-12-25T10:02:57.437Z,88.10
2018-12-25T10:07:43.220Z,84.90
2018-12-25T10:12:28.937Z,86.70
2018-12-25T10:17:14.783Z,85.90
2018-12-25T10:22:03.214Z,83.10
2018-12-25T10:26:48.056Z,92.80
2018-12-25T10:31:33.845Z,94.10
2018-12-25T10:36:19.651Z,96.60
2018-12-25T10:41:05.398Z,98.60
2018-12-25T10:45:51.070Z,99.90
2018-12-25T10:50:36.850Z,99.90
2018-12-25T10:55:22.753Z,99.90
2018-12-25T11:00:11.979Z,98.30
2018-12-25T11:04:57.671Z,94.30
2018-12-25T11:09:43.409Z,93.00
2018-12-25T11:14:29.203Z,85.70
2018-12-25T11:19:14.993Z,82.20
2018-12-25T11:24:00.770Z,90.00
2018-12-25T11:28:46.458Z,75.90
2018-12-25T11:33:32.201Z,70.40
2018-12-25T11:38:17.938Z,71.20
2018-12-25T11:43:03.829Z,67.20
2018-12-25T11:47:49.926Z,64.90
2018-12-25T11:52:35.759Z,64.50
2018-12-25T11:57:21.734Z,68.70
2018-12-25T12:02:07.724Z,75.10
2018-12-25T12:06:53.549Z,77.60
2018-12-25T12:11:39.323Z,76.00
2018-12-25T12:16:25.219Z,74.00
2018-12-25T12:21:11.018Z,78.70
2018-12-25T12:25:56.707Z,76.30
2018-12-25T12:30:42.522Z,73.20
2018-12-25T12:35:28.288Z,69.60
2018-12-25T12:40:14.086Z,68.50
2018-12-25T12:44:59.828Z,63.00
2018-12-25T12:49:45.595Z,57.90
2018-12-25T12:54:31.356Z,52.40
2018-12-25T12:59:17.002Z,47.10
2018-12-25T13:04:02.722Z,44.00
2018-12-25T13:08:48.484Z,43.70
2018-12-25T13:13:34.311Z,43.10
2018-12-25T13:18:20.003Z,43.80
2018-12-25T13:23:05.829Z,43.40
2018-12-25T13:27:51.649Z,45.40
2018-12-25T13:32:37.320Z,50.40
2018-12-25T13:37:23.071Z,57.00
2018-12-25T13:42:08.771Z,63.20
2018-12-25T13:46:54.551Z,68.20
2018-12-25T13:51:41.326Z,68.20
2018-12-25T13:56:27.359Z,66.60
2018-12-25T14:01:13.060Z,68.40
2018-12-25T14:05:58.820Z,71.00
2018-12-25T14:10:44.675Z,71.40
2018-12-25T14:15:30.655Z,72.40
2018-12-25T14:20:16.614Z,72.90
2018-12-25T14:25:02.638Z,75.10
2018-12-25T14:29:48.528Z,76.90
2018-12-25T14:34:34.290Z,81.30
2018-12-25T14:39:20.183Z,90.20
2018-12-25T14:44:06.082Z,92.70
2018-12-25T14:48:51.971Z,94.10
2018-12-25T14:53:37.631Z,93.20
2018-12-25T14:58:23.487Z,94.30
2018-12-25T15:03:09.243Z,94.80
2018-12-25T15:07:55.106Z,94.70
2018-12-25T15:12:41.238Z,96.30
2018-12-25T15:17:26.936Z,99.90
2018-12-25T15:22:12.702Z,99.90
2018-12-25T15:26:58.709Z,99.90
2018-12-25T15:31:44.478Z,99.90
2018-12-25T15:36:30.351Z,99.90
2018-12-25T15:41:16.763Z,99.90
2018-12-25T15:46:02.642Z,99.90
2018-12-25T15:50:48.485Z,99.90
2018-12-25T15:55:34.297Z,99.90
2018-12-25T16:00:20.218Z,99.90
2018-12-25T16:05:06.276Z,99.90
2018-12-25T16:09:52.010Z,99.90
2018-12-25T16:14:37.854Z,99.90
2018-12-25T16:19:23.578Z,99.90
2018-12-25T16:24:09.342Z,99.90
2018-12-25T16:28:55.068Z,99.90
2018-12-25T16:33:40.788Z,99.90
2018-12-25T16:38:26.480Z,99.90
2018-12-25T16:43:12.319Z,99.90
2018-12-25T16:47:58.761Z,99.90
2018-12-25T16:52:44.584Z,99.90
2018-12-25T16:57:30.270Z,99.90
2018-12-25T17:02:16.061Z,99.90
2018-12-25T17:07:01.874Z,99.90
2018-12-25T17:11:47.624Z,99.90
2018-12-25T17:16:33.371Z,99.90
2018-12-25T17:21:19.228Z,99.90
2018-12-25T17:26:04.967Z,99.90
2018-12-25T17:30:50.753Z,99.90
2018-12-25T17:35:36.474Z,99.90
2018-12-25T17:40:22.255Z,99.90
2018-12-25T17:45:08.283Z,99.90
2018-12-25T17:49:54.075Z,99.90
2018-12-25T17:54:39.843Z,99.90
2018-12-25T17:59:25.584Z,99.90
2018-12-25T18:04:11.355Z,99.90
2018-12-25T18:08:57.231Z,99.90
2018-12-25T18:13:43.082Z,99.90
2018-12-25T18:18:28.842Z,99.90
2018-12-25T18:23:14.625Z,99.90
2018-12-25T18:28:00.393Z,99.90
2018-12-25T18:32:46.110Z,99.90
2018-12-25T18:37:31.884Z,99.90
2018-12-25T18:42:23.231Z,99.90
2018-12-25T18:47:05.338Z,99.90
2018-12-25T18:51:51.366Z,99.90
2018-12-25T18:56:37.221Z,99.90
2018-12-25T19:01:23.021Z,99.90
2018-12-25T19:06:09.005Z,99.90
2018-12-25T19:10:55.017Z,99.90
2018-12-25T19:15:40.825Z,99.90
2018-12-25T19:20:26.561Z,99.90
2018-12-25T19:25:12.868Z,99.90
2018-12-25T19:29:58.744Z,99.90
2018-12-25T19:34:44.790Z,99.90
2018-12-25T19:39:30.781Z,99.90
2018-12-25T19:44:16.743Z,99.90
2018-12-25T19:49:02.851Z,99.90
2018-12-25T19:53:48.711Z,99.90
2018-12-25T19:58:34.945Z,99.90
2018-12-25T20:03:25.736Z,99.90
2018-12-25T20:08:43.924Z,99.90
2018-12-25T20:13:52.117Z,99.90
2018-12-25T20:19:11.174Z,99.90
2018-12-25T20:24:40.721Z,99.90
2018-12-25T20:30:19.173Z,99.90
2018-12-25T20:35:45.830Z,99.90
2018-12-25T20:41:20.089Z,99.90
2018-12-25T20:46:37.294Z,99.90
2018-12-25T20:51:58.947Z,99.90
2018-12-25T20:57:33.791Z,99.90
2018-12-25T21:02:51.338Z,99.90
2018-12-25T21:08:13.047Z,99.90
2018-12-25T21:13:48.769Z,99.90
2018-12-25T21:19:10.232Z,99.90
2018-12-25T21:24:31.457Z,99.80
2018-12-25T21:29:17.762Z,99.90
2018-12-25T21:34:04.032Z,99.80
2018-12-25T21:38:50.303Z,99.90
2018-12-25T21:43:36.578Z,99.90
2018-12-25T21:48:23.004Z,99.10
2018-12-25T21:53:10.587Z,97.30
2018-12-25T21:57:57.272Z,97.50
2018-12-25T22:02:43.877Z,97.90
2018-12-25T22:07:29.996Z,96.60
2018-12-25T22:12:16.219Z,94.10
2018-12-25T22:17:02.828Z,94.40
2018-12-25T22:21:48.774Z,94.50
2018-12-25T22:26:34.560Z,94.10
2018-12-25T22:31:20.463Z,94.30
2018-12-25T22:36:06.438Z,93.10
2018-12-25T22:40:52.383Z,95.30
2018-12-25T22:45:38.195Z,93.40
2018-12-25T22:50:23.973Z,92.50
2018-12-25T22:55:11.175Z,91.40
2018-12-25T22:59:56.989Z,90.60
2018-12-25T23:04:42.869Z,90.90
2018-12-25T23:09:28.800Z,95.60
2018-12-25T23:14:14.895Z,96.30
2018-12-25T23:19:00.717Z,92.30
2018-12-25T23:23:46.464Z,91.10
2018-12-25T23:28:32.407Z,93.00
2018-12-25T23:33:18.255Z,92.50
2018-12-25T23:38:04.052Z,97.90
2018-12-25T23:42:49.787Z,99.90
2018-12-25T23:47:35.588Z,99.90
2018-12-25T23:52:21.272Z,99.90
2018-12-25T23:57:07.054Z,99.90
